createdAt,value
2023-03-26T00:03:58.588Z,8.09
2023-03-26T00:08:00.669Z,8.00
2023-03-26T00:12:02.869Z,7.97
2023-03-26T00:16:05.354Z,7.96
2023-03-26T00:20:08.592Z,8.10
2023-03-26T00:24:15.234Z,7.97
2023-03-26T00:28:21.540Z,7.78
2023-03-26T00:32:27.886Z,7.62
2023-03-26T00:36:29.691Z,7.57
2023-03-26T00:40:32.152Z,7.61
2023-03-26T00:44:34.985Z,7.50
2023-03-26T00:48:44.962Z,7.50
2023-03-26T00:52:47.669Z,7.54
2023-03-26T00:56:49.485Z,7.47
2023-03-26T01:00:57.353Z,7.33
2023-03-26T01:05:02.979Z,7.30
2023-03-26T01:09:15.792Z,7.31
2023-03-26T01:13:23.425Z,7.24
2023-03-26T01:17:34.570Z,7.34
2023-03-26T01:21:38.881Z,7.39
2023-03-26T01:25:47.846Z,7.35
2023-03-26T01:30:07.527Z,7.51
2023-03-26T01:34:15.405Z,7.40
2023-03-26T01:38:46.747Z,7.50
2023-03-26T01:43:09.085Z,7.52
2023-03-26T01:47:13.356Z,7.49
2023-03-26T01:51:27.290Z,7.54
2023-03-26T01:55:57.366Z,7.46
2023-03-26T02:00:11.558Z,7.57
2023-03-26T02:04:26.500Z,7.50
2023-03-26T02:08:37.001Z,7.47
2023-03-26T02:12:40.685Z,7.53
2023-03-26T02:16:46.774Z,7.50
2023-03-26T02:20:49.058Z,7.52
2023-03-26T02:24:54.957Z,7.75
2023-03-26T02:28:59.465Z,7.57
2023-03-26T02:33:01.637Z,7.72
2023-03-26T02:37:14.060Z,7.62
2023-03-26T02:41:18.421Z,7.83
2023-03-26T02:45:30.076Z,7.63
2023-03-26T02:49:50.645Z,7.64
2023-03-26T02:54:16.829Z,7.38
2023-03-26T02:58:30.457Z,7.33
2023-03-26T03:02:32.815Z,7.42
2023-03-26T03:06:52.950Z,7.52
2023-03-26T03:10:57.691Z,7.57
2023-03-26T03:15:13.093Z,7.55
2023-03-26T03:19:15.748Z,7.70
2023-03-26T03:23:17.981Z,7.51
2023-03-26T03:27:22.227Z,7.62
2023-03-26T03:31:31.956Z,7.85
2023-03-26T03:35:39.955Z,7.70
2023-03-26T03:39:42.121Z,7.87
2023-03-26T03:43:45.349Z,7.91
2023-03-26T03:47:51.879Z,8.00
2023-03-26T03:52:00.187Z,8.00
2023-03-26T03:56:14.733Z,7.99
2023-03-26T04:00:41.635Z,8.00
2023-03-26T04:05:05.687Z,7.70
2023-03-26T04:09:09.948Z,7.52
2023-03-26T04:13:14.195Z,7.54
2023-03-26T04:17:42.502Z,7.56
2023-03-26T04:21:46.195Z,7.57
2023-03-26T04:25:53.502Z,7.70
2023-03-26T04:30:01.935Z,7.69
2023-03-26T04:34:14.358Z,7.71
2023-03-26T04:38:49.396Z,7.39
2023-03-26T04:42:54.704Z,7.39
2023-03-26T04:47:18.462Z,7.50
2023-03-26T04:51:27.046Z,7.65
2023-03-26T04:55:35.499Z,7.56
2023-03-26T04:59:44.797Z,7.45
2023-03-26T05:03:48.509Z,7.46
2023-03-26T05:07:51.446Z,7.28
2023-03-26T05:11:55.104Z,7.24
2023-03-26T05:15:57.487Z,7.40
2023-03-26T05:20:26.359Z,7.38
2023-03-26T05:24:28.884Z,7.49
2023-03-26T05:28:31.007Z,7.63
2023-03-26T05:32:38.165Z,7.78
2023-03-26T05:36:40.704Z,7.72
2023-03-26T05:41:04.616Z,7.88
2023-03-26T05:45:10.343Z,7.98
2023-03-26T05:49:12.433Z,8.12
2023-03-26T05:53:14.656Z,7.90
2023-03-26T05:57:36.769Z,8.36
2023-03-26T06:02:11.144Z,8.38
2023-03-26T06:06:33.264Z,8.48
2023-03-26T06:10:38.816Z,8.60
2023-03-26T06:14:42.820Z,8.93
2023-03-26T06:18:56.623Z,9.02
2023-03-26T06:23:19.064Z,9.31
2023-03-26T06:27:39.962Z,9.38
2023-03-26T06:32:12.436Z,9.25
2023-03-26T06:36:36.938Z,8.77
2023-03-26T06:40:39.362Z,8.02
2023-03-26T06:44:59.839Z,7.79
2023-03-26T06:49:20.946Z,7.98
2023-03-26T06:53:41.609Z,7.83
2023-03-26T06:57:55.073Z,7.87
2023-03-26T07:02:15.553Z,7.94
2023-03-26T07:06:36.639Z,8.03
2023-03-26T07:10:57.318Z,7.85
2023-03-26T07:15:19.282Z,8.08
2023-03-26T07:19:36.909Z,8.29
2023-03-26T07:23:39.458Z,8.45
2023-03-26T07:28:32.936Z,8.49
2023-03-26T07:33:01.494Z,8.79
2023-03-26T07:37:41.245Z,9.27
2023-03-26T07:41:49.822Z,9.43
2023-03-26T07:46:12.777Z,9.93
2023-03-26T07:50:26.765Z,9.56
2023-03-26T07:54:35.024Z,9.82
2023-03-26T07:59:16.043Z,9.69
2023-03-26T08:04:24.710Z,9.65
2023-03-26T08:09:39.801Z,9.63
2023-03-26T08:14:17.726Z,9.69
2023-03-26T08:18:54.269Z,9.84
2023-03-26T08:23:06.480Z,10.17
2023-03-26T08:27:22.613Z,10.14
2023-03-26T08:31:34.935Z,9.89
2023-03-26T08:35:42.646Z,9.97
2023-03-26T08:39:45.087Z,9.73
2023-03-26T08:44:14.154Z,9.61
2023-03-26T08:48:30.302Z,9.75
2023-03-26T08:53:08.598Z,9.63
2023-03-26T08:57:21.793Z,9.88
2023-03-26T09:01:29.688Z,10.00
2023-03-26T09:05:49.595Z,9.99
2023-03-26T09:09:57.545Z,9.84
2023-03-26T09:14:05.647Z,9.64
2023-03-26T09:18:19.925Z,9.67
2023-03-26T09:22:48.452Z,9.82
2023-03-26T09:27:01.147Z,9.73
2023-03-26T09:31:24.387Z,9.75
2023-03-26T09:36:17.387Z,10.15
2023-03-26T09:40:22.623Z,10.47
2023-03-26T09:44:48.561Z,10.62
2023-03-26T09:49:08.700Z,10.72
2023-03-26T09:53:42.403Z,10.96
2023-03-26T09:58:03.941Z,10.72
2023-03-26T10:02:45.409Z,10.41
2023-03-26T10:07:04.203Z,10.18
2023-03-26T10:11:21.459Z,10.14
2023-03-26T10:15:40.055Z,10.58
2023-03-26T10:19:59.825Z,10.90
2023-03-26T10:24:09.161Z,11.91
2023-03-26T10:28:27.240Z,11.81
2023-03-26T10:32:51.863Z,11.22
2023-03-26T10:37:12.744Z,10.82
2023-03-26T10:41:29.572Z,10.62
2023-03-26T10:45:55.151Z,10.43
2023-03-26T10:49:57.133Z,10.43
2023-03-26T10:54:08.132Z,10.87
2023-03-26T10:58:21.909Z,11.18
2023-03-26T11:02:41.394Z,9.75
2023-03-26T11:06:54.130Z,8.77
2023-03-26T11:11:05.361Z,8.85
2023-03-26T11:15:11.722Z,8.91
2023-03-26T11:19:25.284Z,9.79
2023-03-26T11:23:42.567Z,10.04
2023-03-26T11:28:16.384Z,10.24
2023-03-26T11:32:23.891Z,10.61
2023-03-26T11:36:37.701Z,10.57
2023-03-26T11:40:50.573Z,10.74
2023-03-26T11:45:21.779Z,10.85
2023-03-26T11:49:27.042Z,10.98
2023-03-26T11:53:34.590Z,10.92
2023-03-26T11:57:40.409Z,10.67
2023-03-26T12:02:14.955Z,11.14
2023-03-26T12:06:27.500Z,11.39
2023-03-26T12:10:35.033Z,11.25
2023-03-26T12:14:42.856Z,11.50
2023-03-26T12:18:47.604Z,11.64
2023-03-26T12:22:52.034Z,11.53
2023-03-26T12:27:02.747Z,10.85
2023-03-26T12:31:05.356Z,10.55
2023-03-26T12:35:14.235Z,10.77
2023-03-26T12:40:10.246Z,11.30
2023-03-26T12:44:54.391Z,11.81
2023-03-26T12:49:08.957Z,11.71
2023-03-26T12:53:21.929Z,11.92
2023-03-26T12:57:26.472Z,12.42
2023-03-26T13:01:46.948Z,12.43
2023-03-26T13:05:58.257Z,11.75
2023-03-26T13:10:25.292Z,11.45
2023-03-26T13:14:47.614Z,11.30
2023-03-26T13:19:02.172Z,10.84
2023-03-26T13:23:18.037Z,10.01
2023-03-26T13:27:35.820Z,9.66
2023-03-26T13:31:50.007Z,9.96
2023-03-26T13:36:21.901Z,10.11
2023-03-26T13:40:37.383Z,11.00
2023-03-26T13:45:10.846Z,11.29
2023-03-26T13:49:16.538Z,11.01
2023-03-26T13:53:25.480Z,11.11
2023-03-26T13:57:33.203Z,11.08
2023-03-26T14:01:43.343Z,11.48
2023-03-26T14:05:49.626Z,12.31
2023-03-26T14:10:06.332Z,11.71
2023-03-26T14:14:16.590Z,11.48
2023-03-26T14:18:18.597Z,11.11
2023-03-26T14:22:48.632Z,11.46
2023-03-26T14:27:09.537Z,12.13
2023-03-26T14:31:23.662Z,11.77
2023-03-26T14:35:37.807Z,11.62
2023-03-26T14:40:14.699Z,11.89
2023-03-26T14:44:56.367Z,12.79
2023-03-26T14:49:28.595Z,12.48
2023-03-26T14:53:38.066Z,12.73
2023-03-26T14:57:53.934Z,12.56
2023-03-26T15:02:46.205Z,11.95
2023-03-26T15:07:27.196Z,12.06
2023-03-26T15:12:13.154Z,11.97
2023-03-26T15:16:45.433Z,11.88
2023-03-26T15:21:06.824Z,11.93
2023-03-26T15:25:33.611Z,11.53
2023-03-26T15:29:53.779Z,11.73
2023-03-26T15:34:05.133Z,11.57
2023-03-26T15:38:25.936Z,11.76
2023-03-26T15:42:52.680Z,11.38
2023-03-26T15:47:00.139Z,11.72
2023-03-26T15:51:46.565Z,12.72
2023-03-26T15:55:57.290Z,13.57
2023-03-26T16:00:22.574Z,12.72
2023-03-26T16:04:41.735Z,11.02
2023-03-26T16:09:14.795Z,10.58
2023-03-26T16:13:26.820Z,10.53
2023-03-26T16:18:09.174Z,10.44
2023-03-26T16:22:42.757Z,10.23
2023-03-26T16:27:15.644Z,9.93
2023-03-26T16:31:36.894Z,10.00
2023-03-26T16:35:58.547Z,9.93
2023-03-26T16:40:20.814Z,9.85
2023-03-26T16:44:41.066Z,9.73
2023-03-26T16:49:15.682Z,9.58
2023-03-26T16:53:24.082Z,9.66
2023-03-26T16:57:49.596Z,9.63
2023-03-26T17:02:16.339Z,9.38
2023-03-26T17:07:08.784Z,9.29
2023-03-26T17:11:40.866Z,9.05
2023-03-26T17:15:59.560Z,8.87
2023-03-26T17:20:27.164Z,8.70
2023-03-26T17:24:57.064Z,8.85
2023-03-26T17:29:58.063Z,8.67
2023-03-26T17:34:37.672Z,8.87
2023-03-26T17:38:39.702Z,8.78
2023-03-26T17:43:01.477Z,8.56
2023-03-26T17:47:06.595Z,8.30
2023-03-26T17:51:31.626Z,8.29
2023-03-26T17:55:38.728Z,7.94
2023-03-26T17:59:43.091Z,7.94
2023-03-26T18:03:49.673Z,7.64
2023-03-26T18:08:02.056Z,7.55
2023-03-26T18:12:22.874Z,7.42
2023-03-26T18:16:37.244Z,7.17
2023-03-26T18:20:42.621Z,7.00
2023-03-26T18:24:45.350Z,6.78
2023-03-26T18:28:53.189Z,6.63
2023-03-26T18:33:03.130Z,6.53
2023-03-26T18:37:11.201Z,6.36
2023-03-26T18:41:27.423Z,6.19
2023-03-26T18:45:33.596Z,5.96
2023-03-26T18:49:36.772Z,5.82
2023-03-26T18:53:45.339Z,5.85
2023-03-26T18:57:50.453Z,5.83
2023-03-26T19:01:52.614Z,5.76
2023-03-26T19:05:57.080Z,5.60
2023-03-26T19:10:01.277Z,5.58
2023-03-26T19:14:15.201Z,5.49
2023-03-26T19:18:25.477Z,5.33
2023-03-26T19:22:29.424Z,5.29
2023-03-26T19:26:31.915Z,5.16
2023-03-26T19:30:39.966Z,5.16
2023-03-26T19:34:45.832Z,5.12
2023-03-26T19:39:02.699Z,5.00
2023-03-26T19:43:05.553Z,4.75
2023-03-26T19:47:16.439Z,4.91
2023-03-26T19:51:24.234Z,4.90
2023-03-26T19:55:27.170Z,4.73
2023-03-26T19:59:29.500Z,4.60
2023-03-26T20:03:42.948Z,4.39
2023-03-26T20:07:45.526Z,4.53
2023-03-26T20:11:47.773Z,4.55
2023-03-26T20:16:05.551Z,4.64
2023-03-26T20:20:13.204Z,4.65
2023-03-26T20:24:17.766Z,4.51
2023-03-26T20:28:20.613Z,4.47
2023-03-26T20:32:26.426Z,4.38
2023-03-26T20:36:34.008Z,4.20
2023-03-26T20:40:38.613Z,4.12
2023-03-26T20:44:41.244Z,3.97
2023-03-26T20:48:43.308Z,3.77
2023-03-26T20:52:45.317Z,3.68
2023-03-26T20:56:49.122Z,3.57
2023-03-26T21:00:51.420Z,3.42
2023-03-26T21:04:53.929Z,3.33
2023-03-26T21:08:56.264Z,3.47
2023-03-26T21:13:02.425Z,3.48
2023-03-26T21:17:05.409Z,3.49
2023-03-26T21:21:28.058Z,3.42
2023-03-26T21:25:48.487Z,3.32
2023-03-26T21:29:52.615Z,3.30
2023-03-26T21:33:55.340Z,3.35
2023-03-26T21:37:57.848Z,3.49
2023-03-26T21:42:04.961Z,3.56
2023-03-26T21:46:08.725Z,3.49
2023-03-26T21:50:14.022Z,3.37
2023-03-26T21:54:27.970Z,3.26
2023-03-26T21:59:02.433Z,3.30
2023-03-26T22:03:07.319Z,3.35
2023-03-26T22:07:17.910Z,3.26
2023-03-26T22:11:20.130Z,3.23
2023-03-26T22:15:22.235Z,3.14
2023-03-26T22:19:24.364Z,3.04
2023-03-26T22:23:27.932Z,3.03
2023-03-26T22:27:30.230Z,2.86
2023-03-26T22:31:32.340Z,2.86
2023-03-26T22:35:34.398Z,3.04
2023-03-26T22:39:37.814Z,3.01
2023-03-26T22:43:39.860Z,2.86
2023-03-26T22:47:42.123Z,2.87
2023-03-26T22:51:44.392Z,2.95
2023-03-26T22:55:46.492Z,2.95
2023-03-26T22:59:48.580Z,3.00
2023-03-26T23:03:51.013Z,3.19
2023-03-26T23:07:53.228Z,3.20
2023-03-26T23:11:56.470Z,3.27
2023-03-26T23:15:58.651Z,3.32
2023-03-26T23:20:06.027Z,3.35
2023-03-26T23:24:08.204Z,3.24
2023-03-26T23:28:10.219Z,3.29
2023-03-26T23:32:23.403Z,3.21
2023-03-26T23:36:26.373Z,3.22
2023-03-26T23:40:28.396Z,3.23
2023-03-26T23:44:32.148Z,3.07
2023-03-26T23:48:34.159Z,3.05
2023-03-26T23:52:37.489Z,3.26
2023-03-26T23:56:39.567Z,3.36
